sensor_id;sensor_type;location;lat;lon;timestamp;pressure;altitude;pressure_sealevel;temperature;humidity
57050;BME280;42935;50.966;16.992;2023-05-12T00:01:49;101645.95;;;9.68;72.29
57050;BME280;42935;50.966;16.992;2023-05-12T00:05:09;101642.93;;;9.63;72.79
57050;BME280;42935;50.966;16.992;2023-05-12T00:08:43;101643.96;;;9.57;73.26
57050;BME280;42935;50.966;16.992;2023-05-12T00:12:01;101637.56;;;9.52;73.56
57050;BME280;42935;50.966;16.992;2023-05-12T00:15:19;101637.17;;;9.45;74.04
57050;BME280;42935;50.966;16.992;2023-05-12T00:18:39;101640.77;;;9.35;74.48
57050;BME280;42935;50.966;16.992;2023-05-12T00:22:00;101630.62;;;9.18;74.98
57050;BME280;42935;50.966;16.992;2023-05-12T00:25:20;101637.37;;;9.23;75.20
57050;BME280;42935;50.966;16.992;2023-05-12T00:28:38;101632.27;;;9.12;75.99
57050;BME280;42935;50.966;16.992;2023-05-12T00:31:59;101631.92;;;9.09;75.92
57050;BME280;42935;50.966;16.992;2023-05-12T00:35:17;101637.52;;;9.07;76.07
57050;BME280;42935;50.966;16.992;2023-05-12T00:38:37;101631.80;;;8.97;76.12
57050;BME280;42935;50.966;16.992;2023-05-12T00:41:58;101641.32;;;8.93;76.36
57050;BME280;42935;50.966;16.992;2023-05-12T00:45:19;101643.35;;;8.81;77.48
57050;BME280;42935;50.966;16.992;2023-05-12T00:48:44;101639.72;;;8.59;78.25
57050;BME280;42935;50.966;16.992;2023-05-12T00:52:05;101650.66;;;8.72;77.60
57050;BME280;42935;50.966;16.992;2023-05-12T00:55:26;101646.35;;;8.72;77.54
57050;BME280;42935;50.966;16.992;2023-05-12T00:58:49;101651.45;;;8.54;78.18
57050;BME280;42935;50.966;16.992;2023-05-12T01:02:14;101657.70;;;8.43;78.47
57050;BME280;42935;50.966;16.992;2023-05-12T01:09:06;101662.44;;;8.12;80.88
57050;BME280;42935;50.966;16.992;2023-05-12T01:12:30;101669.96;;;8.03;81.41
57050;BME280;42935;50.966;16.992;2023-05-12T01:15:49;101668.92;;;8.05;80.67
57050;BME280;42935;50.966;16.992;2023-05-12T01:19:33;101667.00;;;7.95;81.12
57050;BME280;42935;50.966;16.992;2023-05-12T01:22:41;101660.77;;;7.68;83.63
57050;BME280;42935;50.966;16.992;2023-05-12T01:26:06;101673.03;;;7.44;89.17
57050;BME280;42935;50.966;16.992;2023-05-12T01:29:27;101652.78;;;7.59;85.81
57050;BME280;42935;50.966;16.992;2023-05-12T01:32:47;101667.73;;;7.70;84.18
57050;BME280;42935;50.966;16.992;2023-05-12T01:36:07;101671.53;;;7.72;84.30
57050;BME280;42935;50.966;16.992;2023-05-12T01:39:27;101673.18;;;7.65;84.67
57050;BME280;42935;50.966;16.992;2023-05-12T01:42:45;101675.46;;;7.48;85.09
57050;BME280;42935;50.966;16.992;2023-05-12T01:46:09;101673.36;;;7.48;85.75
57050;BME280;42935;50.966;16.992;2023-05-12T01:49:27;101662.80;;;7.41;86.60
57050;BME280;42935;50.966;16.992;2023-05-12T01:52:51;101672.59;;;7.37;86.24
57050;BME280;42935;50.966;16.992;2023-05-12T01:56:11;101674.77;;;7.32;86.44
57050;BME280;42935;50.966;16.992;2023-05-12T01:59:38;101674.72;;;7.32;86.90
57050;BME280;42935;50.966;16.992;2023-05-12T02:02:58;101672.68;;;7.36;87.27
57050;BME280;42935;50.966;16.992;2023-05-12T02:06:22;101665.31;;;7.30;87.83
57050;BME280;42935;50.966;16.992;2023-05-12T02:09:44;101676.16;;;7.22;88.48
57050;BME280;42935;50.966;16.992;2023-05-12T02:13:04;101675.90;;;7.18;88.88
57050;BME280;42935;50.966;16.992;2023-05-12T02:16:30;101674.82;;;7.19;89.28
57050;BME280;42935;50.966;16.992;2023-05-12T02:19:50;101671.42;;;7.22;89.38
57050;BME280;42935;50.966;16.992;2023-05-12T02:23:17;101664.20;;;7.15;89.50
57050;BME280;42935;50.966;16.992;2023-05-12T02:26:43;101672.57;;;7.19;89.79
57050;BME280;42935;50.966;16.992;2023-05-12T02:30:00;101679.23;;;7.18;90.00
57050;BME280;42935;50.966;16.992;2023-05-12T02:33:23;101675.98;;;7.15;90.42
57050;BME280;42935;50.966;16.992;2023-05-12T02:36:42;101679.21;;;7.08;92.09
57050;BME280;42935;50.966;16.992;2023-05-12T02:40:02;101677.94;;;7.08;93.31
57050;BME280;42935;50.966;16.992;2023-05-12T02:43:23;101677.51;;;7.15;92.94
57050;BME280;42935;50.966;16.992;2023-05-12T02:46:47;101681.33;;;7.10;92.32
57050;BME280;42935;50.966;16.992;2023-05-12T02:50:08;101681.13;;;7.05;93.65
57050;BME280;42935;50.966;16.992;2023-05-12T02:53:32;101680.87;;;7.15;93.01
57050;BME280;42935;50.966;16.992;2023-05-12T02:56:50;101680.01;;;7.16;93.52
57050;BME280;42935;50.966;16.992;2023-05-12T03:00:21;101674.56;;;7.09;94.39
57050;BME280;42935;50.966;16.992;2023-05-12T03:03:48;101673.80;;;6.98;94.57
57050;BME280;42935;50.966;16.992;2023-05-12T03:07:08;101681.78;;;7.15;94.16
57050;BME280;42935;50.966;16.992;2023-05-12T03:10:28;101674.88;;;7.08;94.00
57050;BME280;42935;50.966;16.992;2023-05-12T03:13:52;101681.89;;;7.19;93.79
57050;BME280;42935;50.966;16.992;2023-05-12T03:17:12;101681.92;;;7.21;93.78
57050;BME280;42935;50.966;16.992;2023-05-12T03:20:35;101681.43;;;7.15;94.93
57050;BME280;42935;50.966;16.992;2023-05-12T03:23:59;101676.64;;;7.05;94.59
57050;BME280;42935;50.966;16.992;2023-05-12T03:27:23;101682.12;;;7.13;94.30
57050;BME280;42935;50.966;16.992;2023-05-12T03:30:41;101690.28;;;7.13;94.97
57050;BME280;42935;50.966;16.992;2023-05-12T03:33:59;101687.79;;;7.09;95.37
57050;BME280;42935;50.966;16.992;2023-05-12T03:37:19;101701.35;;;7.13;95.42
57050;BME280;42935;50.966;16.992;2023-05-12T03:40:39;101699.91;;;7.12;96.69
57050;BME280;42935;50.966;16.992;2023-05-12T03:44:04;101699.93;;;7.11;96.82
57050;BME280;42935;50.966;16.992;2023-05-12T03:47:29;101704.59;;;7.05;97.29
57050;BME280;42935;50.966;16.992;2023-05-12T03:50:47;101707.20;;;7.22;96.00
57050;BME280;42935;50.966;16.992;2023-05-12T03:54:11;101709.41;;;7.25;95.14
57050;BME280;42935;50.966;16.992;2023-05-12T03:57:28;101696.16;;;7.25;93.65
57050;BME280;42935;50.966;16.992;2023-05-12T04:00:49;101709.63;;;7.02;96.69
57050;BME280;42935;50.966;16.992;2023-05-12T04:04:11;101708.21;;;6.95;99.93
57050;BME280;42935;50.966;16.992;2023-05-12T04:07:33;101716.59;;;7.14;98.95
57050;BME280;42935;50.966;16.992;2023-05-12T04:10:59;101710.41;;;7.23;98.52
57050;BME280;42935;50.966;16.992;2023-05-12T04:14:23;101724.78;;;7.23;99.32
57050;BME280;42935;50.966;16.992;2023-05-12T04:17:43;101722.23;;;7.37;98.45
57050;BME280;42935;50.966;16.992;2023-05-12T04:21:01;101727.50;;;7.37;99.18
57050;BME280;42935;50.966;16.992;2023-05-12T04:24:20;101710.58;;;7.08;100.00
57050;BME280;42935;50.966;16.992;2023-05-12T04:27:42;101735.96;;;7.11;100.00
57050;BME280;42935;50.966;16.992;2023-05-12T04:31:02;101734.13;;;7.10;100.00
57050;BME280;42935;50.966;16.992;2023-05-12T04:34:22;101737.05;;;7.04;100.00
57050;BME280;42935;50.966;16.992;2023-05-12T04:37:41;101727.64;;;7.19;100.00
57050;BME280;42935;50.966;16.992;2023-05-12T04:41:05;101731.64;;;7.54;99.12
57050;BME280;42935;50.966;16.992;2023-05-12T04:44:31;101731.68;;;7.69;98.74
57050;BME280;42935;50.966;16.992;2023-05-12T04:47:47;101742.04;;;7.97;98.26
57050;BME280;42935;50.966;16.992;2023-05-12T04:51:11;101746.44;;;8.04;97.29
57050;BME280;42935;50.966;16.992;2023-05-12T04:54:33;101748.88;;;8.27;97.32
57050;BME280;42935;50.966;16.992;2023-05-12T04:57:57;101748.60;;;8.44;97.69
57050;BME280;42935;50.966;16.992;2023-05-12T05:01:17;101744.53;;;8.63;94.39
57050;BME280;42935;50.966;16.992;2023-05-12T05:04:41;101743.56;;;8.86;93.83
57050;BME280;42935;50.966;16.992;2023-05-12T05:08:01;101742.90;;;9.01;90.23
57050;BME280;42935;50.966;16.992;2023-05-12T05:11:17;101750.58;;;9.05;88.73
57050;BME280;42935;50.966;16.992;2023-05-12T05:14:37;101750.39;;;9.18;88.49
57050;BME280;42935;50.966;16.992;2023-05-12T05:17:57;101752.09;;;9.42;87.81
57050;BME280;42935;50.966;16.992;2023-05-12T05:21:18;101752.41;;;9.62;86.03
57050;BME280;42935;50.966;16.992;2023-05-12T05:24:38;101749.45;;;9.73;87.05
57050;BME280;42935;50.966;16.992;2023-05-12T05:27:56;101750.75;;;9.91;84.12
57050;BME280;42935;50.966;16.992;2023-05-12T05:31:17;101749.02;;;10.05;82.26
57050;BME280;42935;50.966;16.992;2023-05-12T05:34:34;101749.94;;;10.04;83.58
57050;BME280;42935;50.966;16.992;2023-05-12T05:38:02;101747.67;;;10.13;81.16
57050;BME280;42935;50.966;16.992;2023-05-12T05:41:19;101744.42;;;10.19;80.15
57050;BME280;42935;50.966;16.992;2023-05-12T05:44:39;101749.51;;;10.41;80.61
57050;BME280;42935;50.966;16.992;2023-05-12T05:48:05;101753.17;;;10.67;81.16
57050;BME280;42935;50.966;16.992;2023-05-12T05:51:25;101756.59;;;10.67;78.77
57050;BME280;42935;50.966;16.992;2023-05-12T05:54:55;101751.19;;;10.78;81.54
57050;BME280;42935;50.966;16.992;2023-05-12T05:58:16;101749.03;;;10.87;79.77
57050;BME280;42935;50.966;16.992;2023-05-12T06:01:36;101756.45;;;10.78;81.54
57050;BME280;42935;50.966;16.992;2023-05-12T06:05:00;101757.34;;;10.87;82.52
57050;BME280;42935;50.966;16.992;2023-05-12T06:08:22;101746.06;;;10.85;82.51
57050;BME280;42935;50.966;16.992;2023-05-12T06:11:42;101757.70;;;11.06;80.76
57050;BME280;42935;50.966;16.992;2023-05-12T06:14:58;101756.53;;;11.21;81.62
57050;BME280;42935;50.966;16.992;2023-05-12T06:18:18;101758.93;;;11.29;81.17
57050;BME280;42935;50.966;16.992;2023-05-12T06:21:36;101762.23;;;11.24;80.18
57050;BME280;42935;50.966;16.992;2023-05-12T06:24:56;101763.40;;;11.34;81.54
57050;BME280;42935;50.966;16.992;2023-05-12T06:28:16;101764.30;;;11.68;85.16
57050;BME280;42935;50.966;16.992;2023-05-12T06:31:36;101755.68;;;11.87;82.37
57050;BME280;42935;50.966;16.992;2023-05-12T06:34:57;101768.57;;;11.81;79.46
57050;BME280;42935;50.966;16.992;2023-05-12T06:38:15;101766.59;;;12.12;78.60
57050;BME280;42935;50.966;16.992;2023-05-12T06:41:42;101766.18;;;12.16;78.56
57050;BME280;42935;50.966;16.992;2023-05-12T06:45:06;101764.69;;;12.30;78.41
57050;BME280;42935;50.966;16.992;2023-05-12T06:48:30;101764.94;;;12.57;75.19
57050;BME280;42935;50.966;16.992;2023-05-12T06:51:50;101763.45;;;12.66;76.33
57050;BME280;42935;50.966;16.992;2023-05-12T06:55:10;101763.62;;;12.68;78.50
57050;BME280;42935;50.966;16.992;2023-05-12T06:58:29;101758.38;;;12.95;78.01
57050;BME280;42935;50.966;16.992;2023-05-12T07:01:52;101759.11;;;12.97;77.77
57050;BME280;42935;50.966;16.992;2023-05-12T07:05:17;101758.13;;;13.10;77.77
57050;BME280;42935;50.966;16.992;2023-05-12T07:08:38;101755.09;;;13.40;74.23
57050;BME280;42935;50.966;16.992;2023-05-12T07:12:00;101746.39;;;13.55;73.37
57050;BME280;42935;50.966;16.992;2023-05-12T07:15:22;101754.07;;;13.66;71.30
57050;BME280;42935;50.966;16.992;2023-05-12T07:18:43;101757.47;;;13.56;70.57
57050;BME280;42935;50.966;16.992;2023-05-12T07:22:03;101756.39;;;13.51;73.48
57050;BME280;42935;50.966;16.992;2023-05-12T07:25:22;101751.01;;;13.72;73.47
57050;BME280;42935;50.966;16.992;2023-05-12T07:28:42;101744.09;;;13.63;72.66
57050;BME280;42935;50.966;16.992;2023-05-12T07:32:32;101742.36;;;14.08;69.57
57050;BME280;42935;50.966;16.992;2023-05-12T07:35:50;101752.87;;;14.34;67.76
57050;BME280;42935;50.966;16.992;2023-05-12T07:39:13;101749.30;;;14.29;66.38
57050;BME280;42935;50.966;16.992;2023-05-12T07:42:38;101758.31;;;14.61;69.41
57050;BME280;42935;50.966;16.992;2023-05-12T07:46:27;101757.20;;;14.84;68.11
57050;BME280;42935;50.966;16.992;2023-05-12T07:49:52;101750.88;;;15.06;69.16
57050;BME280;42935;50.966;16.992;2023-05-12T07:53:12;101753.12;;;15.45;68.53
57050;BME280;42935;50.966;16.992;2023-05-12T07:56:36;101745.78;;;15.41;67.75
57050;BME280;42935;50.966;16.992;2023-05-12T07:59:57;101756.06;;;15.33;65.91
57050;BME280;42935;50.966;16.992;2023-05-12T08:03:19;101739.62;;;15.35;63.75
57050;BME280;42935;50.966;16.992;2023-05-12T08:06:35;101744.36;;;15.47;66.17
57050;BME280;42935;50.966;16.992;2023-05-12T08:09:56;101745.89;;;15.83;66.14
57050;BME280;42935;50.966;16.992;2023-05-12T08:13:15;101744.53;;;16.15;64.84
57050;BME280;42935;50.966;16.992;2023-05-12T08:16:41;101749.57;;;16.36;63.77
57050;BME280;42935;50.966;16.992;2023-05-12T08:20:09;101715.65;;;16.32;60.69
57050;BME280;42935;50.966;16.992;2023-05-12T08:23:30;101753.56;;;16.22;59.68
57050;BME280;42935;50.966;16.992;2023-05-12T08:26:52;101753.02;;;16.44;60.69
57050;BME280;42935;50.966;16.992;2023-05-12T08:30:14;101733.47;;;16.65;60.48
57050;BME280;42935;50.966;16.992;2023-05-12T08:33:35;101733.75;;;17.08;62.97
57050;BME280;42935;50.966;16.992;2023-05-12T08:36:52;101741.70;;;17.08;61.03
57050;BME280;42935;50.966;16.992;2023-05-12T08:40:56;101749.69;;;17.46;61.92
57050;BME280;42935;50.966;16.992;2023-05-12T08:44:13;101710.02;;;16.98;59.87
57050;BME280;42935;50.966;16.992;2023-05-12T08:47:34;101712.35;;;17.14;59.58
57050;BME280;42935;50.966;16.992;2023-05-12T08:50:57;101740.04;;;17.76;59.25
57050;BME280;42935;50.966;16.992;2023-05-12T08:54:25;101747.72;;;17.56;58.86
57050;BME280;42935;50.966;16.992;2023-05-12T08:57:49;101738.82;;;17.84;60.23
57050;BME280;42935;50.966;16.992;2023-05-12T09:01:16;101739.07;;;18.13;60.15
57050;BME280;42935;50.966;16.992;2023-05-12T09:04:37;101732.50;;;18.63;56.62
57050;BME280;42935;50.966;16.992;2023-05-12T09:08:00;101737.02;;;18.31;56.04
57050;BME280;42935;50.966;16.992;2023-05-12T09:11:19;101736.25;;;18.32;55.66
57050;BME280;42935;50.966;16.992;2023-05-12T09:14:41;101730.60;;;18.19;54.78
57050;BME280;42935;50.966;16.992;2023-05-12T09:22:06;101725.95;;;18.32;54.79
57050;BME280;42935;50.966;16.992;2023-05-12T09:25:28;101709.11;;;19.12;53.39
57050;BME280;42935;50.966;16.992;2023-05-12T09:28:55;101721.01;;;18.81;54.64
57050;BME280;42935;50.966;16.992;2023-05-12T09:32:32;101719.41;;;19.13;55.81
57050;BME280;42935;50.966;16.992;2023-05-12T09:35:53;101709.65;;;19.58;52.62
57050;BME280;42935;50.966;16.992;2023-05-12T09:39:16;101706.94;;;19.88;51.06
57050;BME280;42935;50.966;16.992;2023-05-12T09:42:35;101710.79;;;20.01;50.44
57050;BME280;42935;50.966;16.992;2023-05-12T09:45:56;101711.46;;;19.75;53.36
57050;BME280;42935;50.966;16.992;2023-05-12T09:49:23;101706.59;;;19.50;53.04
57050;BME280;42935;50.966;16.992;2023-05-12T09:52:42;101703.45;;;19.62;49.36
57050;BME280;42935;50.966;16.992;2023-05-12T09:56:03;101702.16;;;19.59;48.50
57050;BME280;42935;50.966;16.992;2023-05-12T09:59:28;101701.25;;;19.19;50.35
57050;BME280;42935;50.966;16.992;2023-05-12T10:02:50;101696.65;;;20.01;50.80
57050;BME280;42935;50.966;16.992;2023-05-12T10:06:17;101695.81;;;20.11;48.94
57050;BME280;42935;50.966;16.992;2023-05-12T10:09:40;101690.24;;;19.95;51.42
57050;BME280;42935;50.966;16.992;2023-05-12T10:13:00;101694.28;;;20.19;49.27
57050;BME280;42935;50.966;16.992;2023-05-12T10:16:23;101685.27;;;20.47;52.39
57050;BME280;42935;50.966;16.992;2023-05-12T10:19:43;101687.73;;;20.39;48.84
57050;BME280;42935;50.966;16.992;2023-05-12T10:23:00;101687.77;;;20.35;48.58
57050;BME280;42935;50.966;16.992;2023-05-12T10:29:50;101682.63;;;21.35;51.53
57050;BME280;42935;50.966;16.992;2023-05-12T10:33:15;101680.80;;;21.01;49.89
57050;BME280;42935;50.966;16.992;2023-05-12T10:36:46;101682.20;;;21.02;50.68
57050;BME280;42935;50.966;16.992;2023-05-12T10:43:42;101685.28;;;20.80;50.06
57050;BME280;42935;50.966;16.992;2023-05-12T10:47:11;101676.79;;;21.34;48.24
57050;BME280;42935;50.966;16.992;2023-05-12T10:50:31;101683.33;;;21.83;49.48
57050;BME280;42935;50.966;16.992;2023-05-12T10:54:02;101676.48;;;21.87;49.05
57050;BME280;42935;50.966;16.992;2023-05-12T10:57:26;101683.39;;;21.54;48.38
57050;BME280;42935;50.966;16.992;2023-05-12T11:00:50;101674.48;;;21.11;48.53
57050;BME280;42935;50.966;16.992;2023-05-12T11:04:16;101683.09;;;20.22;49.05
57050;BME280;42935;50.966;16.992;2023-05-12T11:07:45;101674.65;;;21.28;48.98
57050;BME280;42935;50.966;16.992;2023-05-12T11:11:02;101663.35;;;21.80;48.67
57050;BME280;42935;50.966;16.992;2023-05-12T11:14:23;101666.82;;;21.07;48.30
57050;BME280;42935;50.966;16.992;2023-05-12T11:17:45;101674.78;;;20.10;47.26
57050;BME280;42935;50.966;16.992;2023-05-12T11:21:10;101676.09;;;20.11;47.92
57050;BME280;42935;50.966;16.992;2023-05-12T11:24:30;101672.11;;;21.18;47.49
57050;BME280;42935;50.966;16.992;2023-05-12T11:27:53;101669.20;;;21.58;47.49
57050;BME280;42935;50.966;16.992;2023-05-12T11:31:21;101676.38;;;20.70;46.01
57050;BME280;42935;50.966;16.992;2023-05-12T11:34:43;101678.55;;;20.54;46.72
57050;BME280;42935;50.966;16.992;2023-05-12T11:38:14;101681.09;;;20.22;47.67
57050;BME280;42935;50.966;16.992;2023-05-12T11:41:32;101679.95;;;20.31;47.20
57050;BME280;42935;50.966;16.992;2023-05-12T11:44:53;101686.12;;;19.84;46.22
57050;BME280;42935;50.966;16.992;2023-05-12T11:48:17;101686.91;;;19.75;46.16
57050;BME280;42935;50.966;16.992;2023-05-12T11:51:43;101687.32;;;19.88;46.33
57050;BME280;42935;50.966;16.992;2023-05-12T11:55:26;101676.12;;;21.34;49.25
57050;BME280;42935;50.966;16.992;2023-05-12T11:58:54;101675.22;;;22.21;44.16
57050;BME280;42935;50.966;16.992;2023-05-12T12:02:19;101636.59;;;22.07;45.25
57050;BME280;42935;50.966;16.992;2023-05-12T12:05:35;101679.23;;;21.50;45.50
57050;BME280;42935;50.966;16.992;2023-05-12T12:08:59;101673.20;;;21.08;46.53
57050;BME280;42935;50.966;16.992;2023-05-12T12:12:18;101664.81;;;21.96;46.67
57050;BME280;42935;50.966;16.992;2023-05-12T12:15:35;101669.24;;;21.81;45.31
57050;BME280;42935;50.966;16.992;2023-05-12T12:18:57;101675.84;;;21.35;45.09
57050;BME280;42935;50.966;16.992;2023-05-12T12:22:23;101683.24;;;20.62;47.58
57050;BME280;42935;50.966;16.992;2023-05-12T12:25:49;101685.63;;;19.96;47.94
57050;BME280;42935;50.966;16.992;2023-05-12T12:29:08;101690.39;;;19.86;49.07
57050;BME280;42935;50.966;16.992;2023-05-12T12:32:33;101673.88;;;21.45;49.13
57050;BME280;42935;50.966;16.992;2023-05-12T12:35:53;101673.77;;;22.01;46.39
57050;BME280;42935;50.966;16.992;2023-05-12T12:39:09;101673.51;;;21.41;45.66
57050;BME280;42935;50.966;16.992;2023-05-12T12:42:27;101664.34;;;21.33;45.93
57050;BME280;42935;50.966;16.992;2023-05-12T12:45:43;101667.84;;;20.55;45.29
57050;BME280;42935;50.966;16.992;2023-05-12T12:49:03;101674.52;;;20.16;46.83
57050;BME280;42935;50.966;16.992;2023-05-12T12:52:22;101680.21;;;20.13;46.78
57050;BME280;42935;50.966;16.992;2023-05-12T12:55:38;101676.44;;;19.92;46.71
57050;BME280;42935;50.966;16.992;2023-05-12T12:59:29;101682.53;;;20.26;48.95
57050;BME280;42935;50.966;16.992;2023-05-12T13:02:48;101636.39;;;20.26;48.10
57050;BME280;42935;50.966;16.992;2023-05-12T13:06:11;101668.71;;;20.58;46.22
57050;BME280;42935;50.966;16.992;2023-05-12T13:09:31;101667.14;;;19.53;48.11
57050;BME280;42935;50.966;16.992;2023-05-12T13:12:51;101673.65;;;19.59;48.72
57050;BME280;42935;50.966;16.992;2023-05-12T13:16:14;101667.63;;;19.94;47.02
57050;BME280;42935;50.966;16.992;2023-05-12T13:19:39;101658.43;;;19.76;47.32
57050;BME280;42935;50.966;16.992;2023-05-12T13:23:02;101655.59;;;19.74;46.62
57050;BME280;42935;50.966;16.992;2023-05-12T13:26:29;101664.12;;;19.68;46.21
57050;BME280;42935;50.966;16.992;2023-05-12T13:29:52;101665.96;;;19.45;46.36
57050;BME280;42935;50.966;16.992;2023-05-12T13:33:17;101668.38;;;19.40;46.23
57050;BME280;42935;50.966;16.992;2023-05-12T13:36:42;101658.47;;;19.50;46.69
57050;BME280;42935;50.966;16.992;2023-05-12T13:40:02;101670.95;;;19.51;48.01
57050;BME280;42935;50.966;16.992;2023-05-12T13:43:24;101670.94;;;19.57;48.33
57050;BME280;42935;50.966;16.992;2023-05-12T13:46:42;101671.38;;;19.40;48.11
57050;BME280;42935;50.966;16.992;2023-05-12T13:50:05;101661.70;;;19.52;48.06
57050;BME280;42935;50.966;16.992;2023-05-12T13:53:23;101667.41;;;19.33;48.65
57050;BME280;42935;50.966;16.992;2023-05-12T13:56:44;101664.86;;;19.24;47.74
57050;BME280;42935;50.966;16.992;2023-05-12T14:00:00;101664.95;;;19.14;46.82
57050;BME280;42935;50.966;16.992;2023-05-12T14:03:19;101667.98;;;19.46;47.26
57050;BME280;42935;50.966;16.992;2023-05-12T14:06:37;101662.26;;;20.31;48.38
57050;BME280;42935;50.966;16.992;2023-05-12T14:09:58;101663.70;;;20.88;46.21
57050;BME280;42935;50.966;16.992;2023-05-12T14:13:16;101662.73;;;20.36;47.69
57050;BME280;42935;50.966;16.992;2023-05-12T14:16:36;101666.07;;;20.75;47.72
57050;BME280;42935;50.966;16.992;2023-05-12T14:19:57;101667.59;;;20.08;46.89
57050;BME280;42935;50.966;16.992;2023-05-12T14:23:25;101665.45;;;20.18;47.19
57050;BME280;42935;50.966;16.992;2023-05-12T14:26:44;101672.16;;;20.14;46.98
57050;BME280;42935;50.966;16.992;2023-05-12T14:30:02;101666.76;;;21.02;45.65
57050;BME280;42935;50.966;16.992;2023-05-12T14:33:20;101649.98;;;21.52;44.16
57050;BME280;42935;50.966;16.992;2023-05-12T14:36:46;101651.83;;;21.92;44.66
57050;BME280;42935;50.966;16.992;2023-05-12T14:40:09;101656.25;;;22.41;42.78
57050;BME280;42935;50.966;16.992;2023-05-12T14:43:31;101664.04;;;21.07;43.72
57050;BME280;42935;50.966;16.992;2023-05-12T14:46:47;101670.83;;;20.78;46.04
57050;BME280;42935;50.966;16.992;2023-05-12T14:50:09;101672.38;;;20.46;45.00
57050;BME280;42935;50.966;16.992;2023-05-12T14:53:25;101671.39;;;20.08;45.84
57050;BME280;42935;50.966;16.992;2023-05-12T14:56:45;101677.00;;;20.02;44.49
57050;BME280;42935;50.966;16.992;2023-05-12T15:00:01;101674.26;;;19.64;46.66
57050;BME280;42935;50.966;16.992;2023-05-12T15:03:20;101671.18;;;19.36;46.43
57050;BME280;42935;50.966;16.992;2023-05-12T15:06:39;101676.01;;;19.42;46.55
57050;BME280;42935;50.966;16.992;2023-05-12T15:09:57;101679.89;;;19.21;46.94
57050;BME280;42935;50.966;16.992;2023-05-12T15:13:16;101670.38;;;19.12;47.13
57050;BME280;42935;50.966;16.992;2023-05-12T15:16:41;101680.36;;;19.16;47.15
57050;BME280;42935;50.966;16.992;2023-05-12T15:20:04;101672.81;;;19.02;48.34
57050;BME280;42935;50.966;16.992;2023-05-12T15:23:23;101679.11;;;19.31;47.32
57050;BME280;42935;50.966;16.992;2023-05-12T15:26:41;101680.84;;;19.30;46.97
57050;BME280;42935;50.966;16.992;2023-05-12T15:30:32;101674.87;;;19.00;47.93
57050;BME280;42935;50.966;16.992;2023-05-12T15:33:49;101687.02;;;18.77;48.57
57050;BME280;42935;50.966;16.992;2023-05-12T15:37:09;101674.13;;;18.93;48.63
57050;BME280;42935;50.966;16.992;2023-05-12T15:41:01;101684.65;;;19.01;48.15
57050;BME280;42935;50.966;16.992;2023-05-12T15:44:19;101678.85;;;18.64;48.28
57050;BME280;42935;50.966;16.992;2023-05-12T15:47:37;101689.33;;;18.55;48.48
57050;BME280;42935;50.966;16.992;2023-05-12T15:51:02;101687.84;;;18.44;48.82
57050;BME280;42935;50.966;16.992;2023-05-12T15:54:18;101686.98;;;18.56;48.75
57050;BME280;42935;50.966;16.992;2023-05-12T15:57:39;101685.94;;;18.42;48.67
57050;BME280;42935;50.966;16.992;2023-05-12T16:00:59;101683.80;;;18.47;49.28
57050;BME280;42935;50.966;16.992;2023-05-12T16:04:18;101684.83;;;18.61;50.20
57050;BME280;42935;50.966;16.992;2023-05-12T16:07:42;101678.94;;;18.37;50.75
57050;BME280;42935;50.966;16.992;2023-05-12T16:11:00;101685.02;;;18.45;50.16
57050;BME280;42935;50.966;16.992;2023-05-12T16:14:19;101673.34;;;18.24;51.07
57050;BME280;42935;50.966;16.992;2023-05-12T16:17:41;101682.50;;;18.49;51.10
57050;BME280;42935;50.966;16.992;2023-05-12T16:21:00;101676.34;;;18.44;52.32
57050;BME280;42935;50.966;16.992;2023-05-12T16:24:24;101667.27;;;19.12;52.30
57050;BME280;42935;50.966;16.992;2023-05-12T16:27:45;101683.46;;;19.84;50.76
57050;BME280;42935;50.966;16.992;2023-05-12T16:31:06;101681.98;;;20.50;49.73
57050;BME280;42935;50.966;16.992;2023-05-12T16:34:34;101686.43;;;19.44;48.19
57050;BME280;42935;50.966;16.992;2023-05-12T16:37:57;101681.54;;;19.12;49.30
57050;BME280;42935;50.966;16.992;2023-05-12T16:41:16;101689.45;;;20.19;48.48
57050;BME280;42935;50.966;16.992;2023-05-12T16:44:37;101675.16;;;20.59;46.99
57050;BME280;42935;50.966;16.992;2023-05-12T16:47:59;101689.05;;;20.70;46.98
57050;BME280;42935;50.966;16.992;2023-05-12T16:51:20;101686.91;;;21.25;46.85
57050;BME280;42935;50.966;16.992;2023-05-12T16:54:41;101690.13;;;21.09;45.81
57050;BME280;42935;50.966;16.992;2023-05-12T16:58:02;101690.06;;;21.62;46.95
57050;BME280;42935;50.966;16.992;2023-05-12T17:01:18;101691.91;;;21.25;45.69
57050;BME280;42935;50.966;16.992;2023-05-12T17:04:37;101696.66;;;21.11;46.56
57050;BME280;42935;50.966;16.992;2023-05-12T17:07:56;101695.62;;;20.76;46.04
57050;BME280;42935;50.966;16.992;2023-05-12T17:11:21;101702.07;;;21.10;46.27
57050;BME280;42935;50.966;16.992;2023-05-12T17:14:41;101699.95;;;20.67;46.86
57050;BME280;42935;50.966;16.992;2023-05-12T17:17:57;101702.95;;;20.62;47.16
57050;BME280;42935;50.966;16.992;2023-05-12T17:21:18;101672.69;;;20.72;47.06
57050;BME280;42935;50.966;16.992;2023-05-12T17:24:46;101696.27;;;20.04;46.62
57050;BME280;42935;50.966;16.992;2023-05-12T17:28:06;101705.34;;;19.85;45.33
57050;BME280;42935;50.966;16.992;2023-05-12T17:31:26;101719.77;;;19.13;47.12
57050;BME280;42935;50.966;16.992;2023-05-12T17:34:48;101720.59;;;18.62;48.12
57050;BME280;42935;50.966;16.992;2023-05-12T17:38:09;101735.86;;;18.13;48.25
57050;BME280;42935;50.966;16.992;2023-05-12T17:41:27;101727.23;;;17.80;48.43